createdAt,value
2023-01-29T00:01:13.241Z,7.10
2023-01-29T00:03:42.463Z,6.43
2023-01-29T00:06:12.928Z,6.40
2023-01-29T00:08:41.894Z,7.07
2023-01-29T00:11:11.502Z,6.83
2023-01-29T00:13:41.819Z,7.60
2023-01-29T00:16:11.469Z,6.83
2023-01-29T00:18:41.333Z,6.73
2023-01-29T00:21:15.392Z,6.73
2023-01-29T00:23:44.933Z,7.13
2023-01-29T00:26:14.677Z,6.43
2023-01-29T00:28:45.175Z,6.43
2023-01-29T00:31:16.669Z,7.13
2023-01-29T00:33:45.640Z,8.10
2023-01-29T00:36:16.785Z,7.30
2023-01-29T00:38:46.517Z,7.80
2023-01-29T00:41:34.869Z,7.73
2023-01-29T00:44:22.865Z,7.20
2023-01-29T00:46:51.728Z,6.77
2023-01-29T00:49:20.530Z,7.33
2023-01-29T00:52:09.674Z,6.57
2023-01-29T00:54:39.041Z,6.80
2023-01-29T00:57:07.948Z,6.70
2023-01-29T00:59:38.185Z,6.77
2023-01-29T01:02:25.224Z,6.40
2023-01-29T01:04:54.124Z,6.20
2023-01-29T01:07:23.131Z,5.50
2023-01-29T01:10:08.716Z,6.03
2023-01-29T01:12:37.536Z,5.63
2023-01-29T01:15:08.900Z,5.70
2023-01-29T01:17:37.642Z,5.73
2023-01-29T01:20:07.929Z,5.63
2023-01-29T01:22:37.118Z,7.23
2023-01-29T01:25:07.387Z,6.10
2023-01-29T01:27:40.979Z,5.53
2023-01-29T01:30:16.570Z,5.83
2023-01-29T01:32:45.669Z,4.80
2023-01-29T01:35:15.212Z,4.97
2023-01-29T01:37:44.321Z,5.93
2023-01-29T01:40:20.319Z,5.63
2023-01-29T01:42:52.024Z,6.30
2023-01-29T01:45:27.511Z,5.20
2023-01-29T01:48:03.013Z,5.13
2023-01-29T01:50:38.567Z,6.37
2023-01-29T01:53:12.703Z,6.10
2023-01-29T01:55:46.303Z,6.50
2023-01-29T01:58:23.645Z,6.20
2023-01-29T02:00:54.225Z,6.07
2023-01-29T02:03:43.659Z,5.90
2023-01-29T02:06:30.139Z,6.83
2023-01-29T02:09:23.596Z,6.00
2023-01-29T02:11:53.267Z,6.77
2023-01-29T02:14:22.836Z,6.40
2023-01-29T02:16:53.061Z,6.27
2023-01-29T02:19:33.937Z,6.40
2023-01-29T02:22:29.675Z,6.90
2023-01-29T02:25:24.512Z,6.97
2023-01-29T02:28:23.243Z,7.23
2023-01-29T02:31:04.027Z,7.50
2023-01-29T02:33:49.924Z,7.60
2023-01-29T02:36:33.864Z,7.80
2023-01-29T02:39:16.714Z,7.90
2023-01-29T02:41:56.909Z,8.23
2023-01-29T02:44:39.749Z,7.50
2023-01-29T02:47:21.024Z,7.70
2023-01-29T02:49:57.644Z,8.93
2023-01-29T02:52:33.755Z,9.17
2023-01-29T02:55:10.932Z,8.67
2023-01-29T02:57:44.489Z,9.47
2023-01-29T03:00:20.328Z,9.90
2023-01-29T03:02:59.722Z,9.13
2023-01-29T03:05:36.391Z,8.93
2023-01-29T03:08:16.767Z,9.50
2023-01-29T03:10:55.052Z,9.80
2023-01-29T03:13:33.672Z,9.33
2023-01-29T03:16:11.860Z,9.60
2023-01-29T03:18:48.862Z,9.53
2023-01-29T03:21:41.431Z,9.27
2023-01-29T03:24:33.501Z,10.27
2023-01-29T03:27:26.632Z,8.87
2023-01-29T03:30:16.228Z,9.20
2023-01-29T03:32:51.376Z,8.40
2023-01-29T03:35:35.538Z,8.83
2023-01-29T03:38:07.465Z,8.40
2023-01-29T03:40:53.955Z,8.57
2023-01-29T03:43:35.255Z,9.00
2023-01-29T03:46:20.237Z,8.67
2023-01-29T03:49:00.078Z,9.07
2023-01-29T03:51:39.205Z,8.73
2023-01-29T03:54:19.962Z,9.23
2023-01-29T03:57:01.452Z,9.10
2023-01-29T03:59:41.401Z,9.67
2023-01-29T04:02:16.885Z,9.57
2023-01-29T04:04:51.986Z,10.30
2023-01-29T04:07:24.773Z,10.33
2023-01-29T04:10:00.563Z,9.87
2023-01-29T04:12:43.949Z,10.20
2023-01-29T04:15:17.782Z,10.37
2023-01-29T04:17:52.829Z,10.77
2023-01-29T04:20:23.926Z,9.77
2023-01-29T04:22:53.895Z,10.00
2023-01-29T04:25:29.115Z,10.47
2023-01-29T04:28:08.743Z,10.13
2023-01-29T04:30:51.633Z,9.50
2023-01-29T04:33:32.778Z,10.17
2023-01-29T04:36:28.944Z,9.13
2023-01-29T04:39:13.387Z,8.73
2023-01-29T04:41:53.964Z,9.20
2023-01-29T04:44:34.847Z,9.00
2023-01-29T04:47:20.071Z,9.27
2023-01-29T04:49:58.330Z,8.33
2023-01-29T04:52:46.157Z,8.40
2023-01-29T04:55:23.077Z,8.57
2023-01-29T04:58:03.949Z,9.57
2023-01-29T05:00:40.531Z,8.37
2023-01-29T05:03:11.664Z,8.63
2023-01-29T05:05:45.190Z,8.50
2023-01-29T05:08:19.533Z,8.00
2023-01-29T05:10:50.999Z,8.50
2023-01-29T05:13:23.223Z,8.50
2023-01-29T05:15:59.123Z,8.73
2023-01-29T05:18:28.201Z,7.87
2023-01-29T05:21:01.260Z,7.77
2023-01-29T05:23:31.848Z,6.93
2023-01-29T05:26:00.697Z,7.37
2023-01-29T05:28:28.512Z,7.77
2023-01-29T05:30:58.643Z,7.70
2023-01-29T05:33:29.911Z,7.10
2023-01-29T05:36:00.766Z,6.90
2023-01-29T05:38:30.993Z,7.07
2023-01-29T05:41:00.778Z,7.60
2023-01-29T05:43:29.691Z,7.10
2023-01-29T05:46:00.671Z,6.93
2023-01-29T05:48:32.229Z,7.03
2023-01-29T05:51:02.966Z,6.97
2023-01-29T05:53:34.142Z,6.80
2023-01-29T05:56:04.392Z,6.10
2023-01-29T05:58:34.076Z,6.63
2023-01-29T06:01:11.877Z,6.17
2023-01-29T06:03:40.733Z,6.00
2023-01-29T06:06:10.106Z,6.50
2023-01-29T06:08:40.450Z,5.87
2023-01-29T06:11:12.006Z,6.50
2023-01-29T06:13:41.479Z,6.60
2023-01-29T06:16:12.524Z,6.93
2023-01-29T06:18:42.718Z,6.10
2023-01-29T06:21:14.853Z,6.13
2023-01-29T06:23:45.049Z,6.70
2023-01-29T06:26:16.792Z,6.13
2023-01-29T06:28:46.323Z,6.00
2023-01-29T06:31:35.365Z,6.00
2023-01-29T06:34:04.792Z,5.77
2023-01-29T06:36:33.569Z,4.93
2023-01-29T06:39:04.531Z,5.30
2023-01-29T06:41:33.280Z,4.97
2023-01-29T06:44:02.016Z,4.87
2023-01-29T06:46:30.862Z,5.53
2023-01-29T06:49:01.335Z,5.03
2023-01-29T06:51:30.124Z,4.93
2023-01-29T06:53:58.949Z,5.07
2023-01-29T06:56:29.132Z,4.80
2023-01-29T06:58:58.092Z,5.30
2023-01-29T07:01:35.680Z,4.73
2023-01-29T07:04:05.714Z,4.67
2023-01-29T07:06:35.538Z,5.20
2023-01-29T07:09:04.867Z,5.13
2023-01-29T07:11:38.049Z,5.87
2023-01-29T07:14:07.413Z,5.47
2023-01-29T07:16:36.190Z,9.33
2023-01-29T07:19:05.178Z,6.13
2023-01-29T07:21:34.318Z,6.23
2023-01-29T07:24:03.438Z,5.23
2023-01-29T07:26:32.464Z,5.60
2023-01-29T07:29:02.731Z,5.53
2023-01-29T07:31:31.628Z,5.80
2023-01-29T07:34:00.539Z,5.63
2023-01-29T07:36:30.623Z,6.07
2023-01-29T07:38:59.598Z,5.40
2023-01-29T07:41:28.379Z,5.90
2023-01-29T07:43:57.178Z,5.73
2023-01-29T07:46:27.620Z,6.30
2023-01-29T07:48:56.351Z,5.20
2023-01-29T07:51:25.408Z,4.80
2023-01-29T07:53:54.347Z,4.57
2023-01-29T07:56:23.283Z,4.60
2023-01-29T07:58:52.788Z,4.90
2023-01-29T08:01:21.652Z,5.07
2023-01-29T08:03:51.891Z,5.00
2023-01-29T08:06:20.581Z,4.47
2023-01-29T08:08:49.311Z,4.70
2023-01-29T08:11:18.033Z,5.07
2023-01-29T08:13:46.957Z,5.68
2023-01-29T08:16:15.880Z,4.72
2023-01-29T08:18:47.810Z,4.43
2023-01-29T08:21:18.201Z,4.53
2023-01-29T08:23:47.006Z,3.97
2023-01-29T08:26:15.752Z,3.97
2023-01-29T08:28:44.522Z,4.03
2023-01-29T08:31:17.497Z,4.15
2023-01-29T08:33:46.316Z,4.53
2023-01-29T08:36:15.199Z,3.88
2023-01-29T08:38:45.284Z,4.60
2023-01-29T08:41:14.108Z,4.53
2023-01-29T08:43:43.012Z,8.77
2023-01-29T08:46:11.855Z,4.07
2023-01-29T08:48:40.585Z,7.05
2023-01-29T08:51:10.495Z,5.45
2023-01-29T08:53:39.244Z,3.60
2023-01-29T08:56:10.073Z,3.38
2023-01-29T08:58:38.916Z,3.72
2023-01-29T09:01:09.397Z,3.78
2023-01-29T09:03:41.093Z,3.55
2023-01-29T09:06:12.825Z,3.75
2023-01-29T09:08:41.756Z,3.30
2023-01-29T09:11:11.889Z,3.80
2023-01-29T09:13:40.764Z,3.50
2023-01-29T09:16:10.847Z,3.58
2023-01-29T09:18:39.665Z,3.92
2023-01-29T09:21:08.501Z,3.85
2023-01-29T09:23:37.238Z,3.80
2023-01-29T09:26:08.516Z,3.83
2023-01-29T09:28:38.669Z,3.83
2023-01-29T09:31:07.552Z,4.18
2023-01-29T09:33:36.467Z,4.57
2023-01-29T09:36:06.132Z,4.05
2023-01-29T09:38:34.927Z,3.85
2023-01-29T09:41:25.568Z,4.05
2023-01-29T09:44:02.661Z,4.35
2023-01-29T09:46:39.844Z,3.88
2023-01-29T09:49:20.169Z,4.65
2023-01-29T09:51:54.413Z,4.15
2023-01-29T09:54:30.892Z,3.95
2023-01-29T09:57:00.325Z,4.25
2023-01-29T09:59:33.592Z,3.90
2023-01-29T10:02:19.532Z,4.43
2023-01-29T10:05:22.603Z,4.80
2023-01-29T10:08:38.987Z,4.30
2023-01-29T10:11:24.010Z,4.03
2023-01-29T10:14:11.597Z,4.20
2023-01-29T10:17:00.538Z,3.95
2023-01-29T10:19:55.353Z,4.05
2023-01-29T10:22:45.757Z,4.32
2023-01-29T10:25:19.013Z,3.90
2023-01-29T10:27:53.097Z,3.83
2023-01-29T10:30:32.032Z,4.53
2023-01-29T10:33:06.149Z,4.85
2023-01-29T10:35:40.693Z,13.10
2023-01-29T10:38:29.760Z,4.85
2023-01-29T10:41:15.630Z,4.90
2023-01-29T10:44:01.371Z,5.13
2023-01-29T10:46:51.024Z,4.55
2023-01-29T10:49:43.228Z,4.80
2023-01-29T10:52:28.446Z,4.30
2023-01-29T10:55:14.262Z,6.78
2023-01-29T10:58:03.122Z,4.50
2023-01-29T11:00:39.504Z,4.43
2023-01-29T11:03:27.529Z,4.55
2023-01-29T11:06:11.688Z,4.35
2023-01-29T11:08:49.994Z,4.90
2023-01-29T11:11:22.557Z,4.40
2023-01-29T11:13:59.231Z,4.30
2023-01-29T11:16:33.650Z,4.68
2023-01-29T11:19:03.461Z,4.80
2023-01-29T11:21:33.647Z,5.10
2023-01-29T11:24:15.574Z,5.10
2023-01-29T11:26:47.109Z,4.97
2023-01-29T11:29:40.324Z,5.23
2023-01-29T11:32:15.267Z,4.80
2023-01-29T11:35:03.156Z,5.20
2023-01-29T11:37:39.329Z,5.20
2023-01-29T11:40:36.331Z,4.40
2023-01-29T11:43:32.421Z,5.70
2023-01-29T11:46:05.690Z,11.57
2023-01-29T11:48:43.169Z,6.13
2023-01-29T11:51:23.697Z,5.10
2023-01-29T11:53:58.108Z,4.97
2023-01-29T11:56:34.264Z,5.57
2023-01-29T11:59:04.711Z,5.13
2023-01-29T12:01:38.985Z,5.43
2023-01-29T12:04:21.900Z,5.00
2023-01-29T12:06:55.177Z,5.45
2023-01-29T12:09:28.393Z,5.20
2023-01-29T12:11:57.272Z,5.07
2023-01-29T12:14:33.638Z,5.57
2023-01-29T12:17:09.300Z,4.93
2023-01-29T12:19:44.379Z,5.00
2023-01-29T12:22:22.779Z,6.30
2023-01-29T12:24:59.153Z,6.00
2023-01-29T12:27:43.589Z,6.30
2023-01-29T12:30:22.458Z,5.43
2023-01-29T12:32:58.481Z,5.37
2023-01-29T12:35:32.361Z,5.90
2023-01-29T12:38:06.500Z,5.50
2023-01-29T12:40:44.402Z,5.40
2023-01-29T12:43:18.258Z,5.70
2023-01-29T12:45:53.472Z,6.10
2023-01-29T12:48:29.980Z,5.67
2023-01-29T12:51:09.031Z,5.37
2023-01-29T12:53:46.232Z,6.43
2023-01-29T12:56:28.097Z,6.97
2023-01-29T12:59:00.578Z,5.87
2023-01-29T13:01:34.900Z,6.10
2023-01-29T13:04:08.410Z,6.63
2023-01-29T13:06:43.669Z,6.43
2023-01-29T13:09:18.425Z,6.07
2023-01-29T13:11:57.884Z,5.93
2023-01-29T13:14:37.233Z,6.60
2023-01-29T13:17:15.350Z,6.80
2023-01-29T13:19:49.169Z,6.60
2023-01-29T13:22:25.765Z,7.30
2023-01-29T13:25:04.779Z,6.97
2023-01-29T13:27:38.042Z,6.57
2023-01-29T13:30:08.786Z,6.80
2023-01-29T13:32:38.213Z,7.83
2023-01-29T13:35:17.494Z,7.10
2023-01-29T13:37:53.393Z,7.53
2023-01-29T13:40:27.510Z,7.07
2023-01-29T13:43:00.419Z,7.23
2023-01-29T13:45:37.650Z,6.43
2023-01-29T13:48:24.424Z,6.83
2023-01-29T13:50:55.019Z,6.97
2023-01-29T13:53:28.625Z,6.70
2023-01-29T13:56:30.423Z,6.80
2023-01-29T13:59:02.874Z,6.70
2023-01-29T14:02:04.940Z,6.87
2023-01-29T14:04:34.300Z,6.63
2023-01-29T14:07:04.335Z,7.50
2023-01-29T14:10:06.335Z,7.73
2023-01-29T14:12:43.213Z,7.60
2023-01-29T14:15:38.364Z,7.33
2023-01-29T14:18:29.344Z,7.60
2023-01-29T14:21:05.299Z,7.93
2023-01-29T14:23:48.716Z,7.70
2023-01-29T14:26:29.349Z,8.60
2023-01-29T14:29:04.065Z,7.57
2023-01-29T14:31:44.284Z,7.83
2023-01-29T14:34:25.120Z,8.20
2023-01-29T14:36:58.790Z,7.63
2023-01-29T14:39:38.259Z,7.80
2023-01-29T14:42:24.677Z,8.03
2023-01-29T14:45:22.766Z,8.40
2023-01-29T14:47:59.698Z,7.53
2023-01-29T14:50:54.764Z,7.80
2023-01-29T14:54:00.603Z,8.43
2023-01-29T14:56:37.299Z,8.10
2023-01-29T14:59:19.981Z,7.80
2023-01-29T15:01:54.724Z,8.50
2023-01-29T15:04:30.134Z,8.40
2023-01-29T15:07:05.730Z,7.87
2023-01-29T15:09:43.723Z,7.53
2023-01-29T15:12:26.934Z,7.47
2023-01-29T15:15:08.900Z,7.60
2023-01-29T15:17:50.802Z,7.50
2023-01-29T15:20:34.520Z,7.87
2023-01-29T15:23:04.818Z,8.00
2023-01-29T15:25:38.912Z,8.63
2023-01-29T15:28:12.620Z,9.43
2023-01-29T15:30:43.771Z,8.47
2023-01-29T15:33:16.043Z,8.83
2023-01-29T15:35:49.946Z,8.00
2023-01-29T15:38:22.120Z,8.40
2023-01-29T15:40:56.557Z,8.53
2023-01-29T15:43:28.603Z,8.77
2023-01-29T15:46:02.202Z,8.50
2023-01-29T15:48:40.578Z,8.43
2023-01-29T15:51:17.637Z,8.97
2023-01-29T15:53:52.312Z,9.50
2023-01-29T15:56:27.943Z,10.03
2023-01-29T15:59:00.395Z,9.20
2023-01-29T16:01:30.382Z,9.40
2023-01-29T16:04:02.442Z,9.97
2023-01-29T16:06:40.031Z,9.23
2023-01-29T16:09:09.729Z,8.90
2023-01-29T16:11:40.350Z,10.07
2023-01-29T16:14:12.916Z,9.90
2023-01-29T16:16:45.165Z,10.77
2023-01-29T16:19:25.321Z,8.83
2023-01-29T16:22:01.224Z,8.97
2023-01-29T16:24:33.592Z,9.70
2023-01-29T16:27:10.333Z,9.23
2023-01-29T16:29:39.844Z,9.90
2023-01-29T16:32:12.470Z,9.53
2023-01-29T16:34:44.218Z,10.23
2023-01-29T16:37:26.106Z,9.70
2023-01-29T16:39:55.383Z,9.90
2023-01-29T16:42:30.466Z,10.30
2023-01-29T16:45:03.523Z,9.77
2023-01-29T16:47:36.455Z,9.87
2023-01-29T16:50:40.531Z,9.60
2023-01-29T16:53:21.964Z,9.83
2023-01-29T16:55:53.757Z,9.70
2023-01-29T16:58:28.299Z,9.97
2023-01-29T17:01:02.251Z,8.93
2023-01-29T17:03:35.272Z,9.17
2023-01-29T17:06:12.240Z,9.83
2023-01-29T17:08:44.341Z,8.87
2023-01-29T17:11:24.907Z,9.70
2023-01-29T17:13:58.132Z,10.27
2023-01-29T17:16:31.449Z,10.03
2023-01-29T17:19:01.183Z,9.43
2023-01-29T17:21:31.069Z,9.97
2023-01-29T17:24:01.393Z,10.33
2023-01-29T17:26:32.486Z,10.80
2023-01-29T17:29:01.564Z,10.93
2023-01-29T17:31:30.544Z,10.07
2023-01-29T17:33:59.534Z,12.30
2023-01-29T17:36:28.281Z,10.43
2023-01-29T17:38:57.045Z,11.10
2023-01-29T17:41:31.343Z,10.87
2023-01-29T17:44:00.145Z,10.07
2023-01-29T17:46:28.994Z,10.80
2023-01-29T17:48:57.877Z,11.53
2023-01-29T17:51:26.724Z,10.83
2023-01-29T17:53:55.429Z,10.93
2023-01-29T17:56:28.166Z,12.03
2023-01-29T17:58:57.119Z,11.70
2023-01-29T18:01:26.076Z,12.33
2023-01-29T18:03:55.300Z,11.33
2023-01-29T18:06:29.960Z,12.80
2023-01-29T18:08:59.267Z,11.47
2023-01-29T18:11:30.054Z,10.93
2023-01-29T18:13:59.186Z,11.53
2023-01-29T18:16:37.519Z,11.47
2023-01-29T18:19:19.953Z,11.10
2023-01-29T18:21:49.259Z,11.27
2023-01-29T18:24:20.719Z,10.93
2023-01-29T18:26:52.933Z,11.60
2023-01-29T18:29:21.718Z,12.50
2023-01-29T18:31:50.864Z,11.80
2023-01-29T18:34:20.007Z,10.93
2023-01-29T18:36:49.560Z,12.20
2023-01-29T18:39:19.227Z,11.40
2023-01-29T18:41:48.541Z,12.07
2023-01-29T18:44:19.205Z,12.23
2023-01-29T18:46:48.307Z,12.23
2023-01-29T18:49:17.301Z,12.37
2023-01-29T18:51:46.058Z,12.63
2023-01-29T18:54:24.715Z,12.67
2023-01-29T18:57:07.663Z,12.53
2023-01-29T18:59:45.126Z,13.07
2023-01-29T19:02:17.391Z,13.30
2023-01-29T19:04:47.403Z,13.30
2023-01-29T19:07:17.181Z,13.00
2023-01-29T19:09:47.098Z,21.80
2023-01-29T19:12:15.963Z,28.23
2023-01-29T19:14:46.623Z,19.67
2023-01-29T19:17:15.900Z,14.80
2023-01-29T19:19:44.873Z,14.60
2023-01-29T19:22:13.697Z,14.67
2023-01-29T19:24:42.582Z,11.83
2023-01-29T19:27:11.745Z,13.17
2023-01-29T19:29:43.586Z,12.97
2023-01-29T19:32:15.114Z,12.90
2023-01-29T19:34:44.322Z,12.60
2023-01-29T19:37:13.082Z,13.27
2023-01-29T19:39:42.043Z,13.47
2023-01-29T19:42:11.143Z,14.50
2023-01-29T19:44:40.521Z,14.33
2023-01-29T19:47:10.017Z,13.90
2023-01-29T19:49:41.218Z,14.63
2023-01-29T19:52:38.521Z,14.27
2023-01-29T19:55:18.583Z,14.30
2023-01-29T19:57:47.846Z,14.77
2023-01-29T20:00:19.372Z,15.50
2023-01-29T20:02:48.357Z,14.97
2023-01-29T20:05:20.399Z,15.27
2023-01-29T20:07:50.041Z,15.93
2023-01-29T20:10:19.637Z,16.77
2023-01-29T20:12:49.495Z,16.37
2023-01-29T20:15:18.543Z,16.57
2023-01-29T20:17:47.322Z,16.77
2023-01-29T20:20:18.296Z,16.07
2023-01-29T20:22:47.211Z,16.17
2023-01-29T20:25:17.138Z,18.13
2023-01-29T20:27:45.992Z,16.53
2023-01-29T20:30:15.954Z,15.80
2023-01-29T20:32:45.013Z,17.33
2023-01-29T20:35:13.887Z,17.43
2023-01-29T20:37:44.102Z,17.77
2023-01-29T20:40:15.833Z,16.33
2023-01-29T20:42:45.044Z,15.80
2023-01-29T20:45:13.947Z,15.57
2023-01-29T20:47:42.881Z,26.50
2023-01-29T20:50:14.031Z,23.80
2023-01-29T20:52:44.561Z,18.97
2023-01-29T20:55:14.841Z,18.20
2023-01-29T20:57:43.683Z,17.10
2023-01-29T21:00:30.540Z,17.30
2023-01-29T21:03:01.265Z,17.57
2023-01-29T21:05:30.101Z,16.37
2023-01-29T21:08:00.399Z,15.37
2023-01-29T21:10:29.158Z,14.97
2023-01-29T21:12:57.881Z,14.83
2023-01-29T21:15:27.810Z,14.80
2023-01-29T21:17:59.279Z,16.87
2023-01-29T21:20:28.063Z,18.07
2023-01-29T21:22:56.859Z,14.03
2023-01-29T21:25:27.207Z,15.53
2023-01-29T21:27:56.329Z,14.33
2023-01-29T21:30:25.313Z,15.90
2023-01-29T21:32:54.109Z,14.47
2023-01-29T21:35:22.931Z,14.40
2023-01-29T21:37:51.710Z,13.87
2023-01-29T21:40:25.057Z,13.63
2023-01-29T21:43:13.568Z,13.83
2023-01-29T21:45:43.712Z,13.60
2023-01-29T21:48:13.381Z,13.50
2023-01-29T21:50:42.339Z,13.87
2023-01-29T21:53:11.124Z,15.20
2023-01-29T21:55:39.812Z,13.50
2023-01-29T21:58:09.965Z,14.67
2023-01-29T22:00:39.179Z,13.67
2023-01-29T22:03:08.065Z,12.87
2023-01-29T22:05:36.834Z,13.10
2023-01-29T22:08:05.704Z,12.20
2023-01-29T22:10:36.586Z,13.27
2023-01-29T22:13:05.561Z,12.80
2023-01-29T22:15:35.988Z,12.63
2023-01-29T22:18:04.839Z,12.87
2023-01-29T22:20:33.704Z,12.20
2023-01-29T22:23:02.418Z,12.80
2023-01-29T22:25:32.295Z,11.90
2023-01-29T22:28:01.323Z,11.30
2023-01-29T22:30:30.601Z,12.20
2023-01-29T22:33:00.796Z,11.37
2023-01-29T22:35:29.586Z,10.97
2023-01-29T22:37:58.374Z,11.23
2023-01-29T22:40:27.276Z,10.87
2023-01-29T22:42:56.034Z,11.43
2023-01-29T22:45:24.857Z,11.13
2023-01-29T22:47:53.719Z,11.63
2023-01-29T22:50:23.960Z,12.50
2023-01-29T22:52:54.029Z,9.90
2023-01-29T22:55:23.011Z,10.53
2023-01-29T22:57:53.552Z,11.03
2023-01-29T23:00:23.033Z,11.37
2023-01-29T23:02:52.431Z,14.83
2023-01-29T23:05:21.255Z,18.43
2023-01-29T23:07:51.442Z,19.03
2023-01-29T23:10:20.507Z,19.97
2023-01-29T23:12:49.400Z,18.37
2023-01-29T23:15:18.362Z,18.60
2023-01-29T23:17:47.127Z,19.33
2023-01-29T23:20:16.444Z,19.17
2023-01-29T23:22:45.365Z,17.50
2023-01-29T23:25:15.663Z,15.67
2023-01-29T23:27:43.358Z,16.13
2023-01-29T23:30:13.371Z,15.07
2023-01-29T23:32:42.268Z,15.40
2023-01-29T23:35:11.588Z,14.23
2023-01-29T23:37:40.438Z,14.93
2023-01-29T23:40:11.655Z,15.23
2023-01-29T23:42:42.132Z,16.10
2023-01-29T23:45:12.484Z,15.20
2023-01-29T23:47:41.288Z,13.73
2023-01-29T23:50:12.324Z,14.33
2023-01-29T23:52:41.171Z,14.93
2023-01-29T23:55:10.665Z,14.13
2023-01-29T23:57:39.421Z,13.90
